sensor_id;sensor_type;location;lat;lon;timestamp;pressure;altitude;pressure_sealevel;temperature;humidity
27052;BME280;14601;49.358;8.256;2022-08-21T00:01:41;100508.13;;;18.10;61.39
27052;BME280;14601;49.358;8.256;2022-08-21T00:04:43;100504.78;;;18.08;61.57
27052;BME280;14601;49.358;8.256;2022-08-21T00:07:46;100499.69;;;18.04;61.64
27052;BME280;14601;49.358;8.256;2022-08-21T00:10:49;100502.06;;;17.99;61.76
27052;BME280;14601;49.358;8.256;2022-08-21T00:13:53;100490.22;;;18.09;61.30
27052;BME280;14601;49.358;8.256;2022-08-21T00:16:55;100494.94;;;18.07;61.52
27052;BME280;14601;49.358;8.256;2022-08-21T00:19:57;100491.78;;;18.03;61.58
27052;BME280;14601;49.358;8.256;2022-08-21T00:22:58;100492.75;;;18.02;61.63
27052;BME280;14601;49.358;8.256;2022-08-21T00:26:01;100488.19;;;18.02;61.42
27052;BME280;14601;49.358;8.256;2022-08-21T00:29:04;100488.38;;;18.01;61.47
27052;BME280;14601;49.358;8.256;2022-08-21T00:32:06;100481.47;;;17.90;61.84
27052;BME280;14601;49.358;8.256;2022-08-21T00:35:12;100488.22;;;17.86;61.91
27052;BME280;14601;49.358;8.256;2022-08-21T00:38:14;100484.34;;;17.89;61.73
27052;BME280;14601;49.358;8.256;2022-08-21T00:41:17;100487.91;;;17.81;61.87
27052;BME280;14601;49.358;8.256;2022-08-21T00:44:20;100490.56;;;17.73;62.12
27052;BME280;14601;49.358;8.256;2022-08-21T00:47:22;100484.00;;;17.67;62.48
27052;BME280;14601;49.358;8.256;2022-08-21T00:50:26;100482.78;;;17.62;62.54
27052;BME280;14601;49.358;8.256;2022-08-21T00:53:29;100481.63;;;17.56;62.68
27052;BME280;14601;49.358;8.256;2022-08-21T00:56:32;100470.31;;;17.61;62.52
27052;BME280;14601;49.358;8.256;2022-08-21T00:59:37;100473.69;;;17.63;62.55
27052;BME280;14601;49.358;8.256;2022-08-21T01:02:40;100472.34;;;17.67;62.34
27052;BME280;14601;49.358;8.256;2022-08-21T01:05:42;100473.69;;;17.63;62.41
27052;BME280;14601;49.358;8.256;2022-08-21T01:08:45;100479.44;;;17.68;62.32
27052;BME280;14601;49.358;8.256;2022-08-21T01:11:47;100473.00;;;17.61;62.28
27052;BME280;14601;49.358;8.256;2022-08-21T01:14:50;100475.19;;;17.65;62.11
27052;BME280;14601;49.358;8.256;2022-08-21T01:17:53;100476.22;;;17.64;62.38
27052;BME280;14601;49.358;8.256;2022-08-21T01:21:06;100473.50;;;17.56;62.50
27052;BME280;14601;49.358;8.256;2022-08-21T01:24:08;100483.28;;;17.49;62.82
27052;BME280;14601;49.358;8.256;2022-08-21T01:27:10;100474.34;;;17.40;63.05
27052;BME280;14601;49.358;8.256;2022-08-21T01:30:14;100472.34;;;17.42;63.18
27052;BME280;14601;49.358;8.256;2022-08-21T01:33:18;100472.66;;;17.39;63.01
27052;BME280;14601;49.358;8.256;2022-08-21T01:36:23;100475.50;;;17.21;63.76
27052;BME280;14601;49.358;8.256;2022-08-21T01:39:25;100475.09;;;16.92;65.19
27052;BME280;14601;49.358;8.256;2022-08-21T01:42:27;100472.06;;;16.87;65.29
27052;BME280;14601;49.358;8.256;2022-08-21T01:45:29;100478.28;;;16.87;65.07
27052;BME280;14601;49.358;8.256;2022-08-21T01:48:31;100481.31;;;16.84;65.22
27052;BME280;14601;49.358;8.256;2022-08-21T01:51:34;100473.22;;;16.84;64.99
27052;BME280;14601;49.358;8.256;2022-08-21T01:54:37;100468.63;;;16.76;65.38
27052;BME280;14601;49.358;8.256;2022-08-21T01:57:39;100466.47;;;16.80;65.16
27052;BME280;14601;49.358;8.256;2022-08-21T02:00:41;100473.44;;;16.65;65.90
27052;BME280;14601;49.358;8.256;2022-08-21T02:03:43;100465.84;;;16.60;66.12
27052;BME280;14601;49.358;8.256;2022-08-21T02:06:47;100471.25;;;16.60;65.99
27052;BME280;14601;49.358;8.256;2022-08-21T02:09:49;100467.00;;;16.49;66.47
27052;BME280;14601;49.358;8.256;2022-08-21T02:12:51;100464.97;;;16.51;66.06
27052;BME280;14601;49.358;8.256;2022-08-21T02:15:53;100462.91;;;16.37;66.45
27052;BME280;14601;49.358;8.256;2022-08-21T02:18:55;100458.31;;;16.29;66.85
27052;BME280;14601;49.358;8.256;2022-08-21T02:21:58;100461.19;;;16.36;66.95
27052;BME280;14601;49.358;8.256;2022-08-21T02:25:00;100464.22;;;16.33;67.21
27052;BME280;14601;49.358;8.256;2022-08-21T02:28:04;100460.31;;;16.27;67.54
27052;BME280;14601;49.358;8.256;2022-08-21T02:31:06;100460.25;;;16.19;68.02
27052;BME280;14601;49.358;8.256;2022-08-21T02:34:08;100459.72;;;16.16;68.47
27052;BME280;14601;49.358;8.256;2022-08-21T02:37:12;100455.84;;;16.10;68.61
27052;BME280;14601;49.358;8.256;2022-08-21T02:40:15;100458.25;;;15.95;69.70
27052;BME280;14601;49.358;8.256;2022-08-21T02:43:19;100463.16;;;15.74;70.63
27052;BME280;14601;49.358;8.256;2022-08-21T02:46:21;100472.09;;;15.56;71.67
27052;BME280;14601;49.358;8.256;2022-08-21T02:49:24;100461.31;;;15.56;71.39
27052;BME280;14601;49.358;8.256;2022-08-21T02:52:27;100468.69;;;15.54;71.37
27052;BME280;14601;49.358;8.256;2022-08-21T02:55:31;100469.00;;;15.51;72.10
27052;BME280;14601;49.358;8.256;2022-08-21T02:58:35;100464.03;;;15.56;71.50
27052;BME280;14601;49.358;8.256;2022-08-21T03:01:38;100458.16;;;15.61;71.34
27052;BME280;14601;49.358;8.256;2022-08-21T03:04:40;100461.63;;;15.71;71.25
27052;BME280;14601;49.358;8.256;2022-08-21T03:07:47;100466.50;;;15.68;70.77
27052;BME280;14601;49.358;8.256;2022-08-21T03:10:52;100465.41;;;15.61;70.88
27052;BME280;14601;49.358;8.256;2022-08-21T03:13:54;100460.16;;;15.59;70.56
27052;BME280;14601;49.358;8.256;2022-08-21T03:16:56;100457.09;;;15.54;70.84
27052;BME280;14601;49.358;8.256;2022-08-21T03:19:58;100457.25;;;15.52;71.00
27052;BME280;14601;49.358;8.256;2022-08-21T03:23:02;100458.78;;;15.37;71.33
27052;BME280;14601;49.358;8.256;2022-08-21T03:26:04;100465.50;;;15.33;71.72
27052;BME280;14601;49.358;8.256;2022-08-21T03:29:06;100469.25;;;15.22;72.31
27052;BME280;14601;49.358;8.256;2022-08-21T03:32:08;100471.00;;;15.14;72.60
27052;BME280;14601;49.358;8.256;2022-08-21T03:35:10;100466.75;;;14.93;73.44
27052;BME280;14601;49.358;8.256;2022-08-21T03:38:13;100471.13;;;14.76;74.90
27052;BME280;14601;49.358;8.256;2022-08-21T03:41:16;100473.59;;;14.88;74.05
27052;BME280;14601;49.358;8.256;2022-08-21T03:44:17;100464.06;;;14.93;73.75
27052;BME280;14601;49.358;8.256;2022-08-21T03:47:19;100464.78;;;14.95;73.58
27052;BME280;14601;49.358;8.256;2022-08-21T03:50:23;100469.00;;;14.98;73.47
27052;BME280;14601;49.358;8.256;2022-08-21T03:53:27;100461.94;;;14.97;73.70
27052;BME280;14601;49.358;8.256;2022-08-21T03:56:30;100462.09;;;14.95;73.81
27052;BME280;14601;49.358;8.256;2022-08-21T03:59:32;100466.75;;;14.93;73.63
27052;BME280;14601;49.358;8.256;2022-08-21T04:02:34;100465.84;;;14.84;74.24
27052;BME280;14601;49.358;8.256;2022-08-21T04:05:36;100468.06;;;14.89;73.93
27052;BME280;14601;49.358;8.256;2022-08-21T04:08:40;100476.69;;;14.93;73.46
27052;BME280;14601;49.358;8.256;2022-08-21T04:11:43;100477.13;;;14.88;73.53
27052;BME280;14601;49.358;8.256;2022-08-21T04:14:46;100479.94;;;14.69;74.39
27052;BME280;14601;49.358;8.256;2022-08-21T04:17:48;100484.19;;;14.71;74.01
27052;BME280;14601;49.358;8.256;2022-08-21T04:20:51;100486.31;;;14.68;74.14
27052;BME280;14601;49.358;8.256;2022-08-21T04:23:55;100487.72;;;14.72;73.68
27052;BME280;14601;49.358;8.256;2022-08-21T04:26:57;100494.59;;;14.74;73.41
27052;BME280;14601;49.358;8.256;2022-08-21T04:29:59;100490.59;;;14.61;74.43
27052;BME280;14601;49.358;8.256;2022-08-21T04:33:01;100499.38;;;14.63;74.39
27052;BME280;14601;49.358;8.256;2022-08-21T04:36:05;100501.41;;;14.51;75.31
27052;BME280;14601;49.358;8.256;2022-08-21T04:39:08;100510.53;;;14.58;75.01
27052;BME280;14601;49.358;8.256;2022-08-21T04:42:10;100510.22;;;14.71;74.46
27052;BME280;14601;49.358;8.256;2022-08-21T04:45:20;100516.84;;;14.76;73.79
27052;BME280;14601;49.358;8.256;2022-08-21T04:48:23;100517.69;;;14.77;73.90
27052;BME280;14601;49.358;8.256;2022-08-21T04:51:29;100521.09;;;14.79;73.82
27052;BME280;14601;49.358;8.256;2022-08-21T04:54:34;100512.69;;;14.82;73.67
27052;BME280;14601;49.358;8.256;2022-08-21T04:57:36;100518.63;;;14.86;73.71
27052;BME280;14601;49.358;8.256;2022-08-21T05:00:38;100520.47;;;14.85;73.37
27052;BME280;14601;49.358;8.256;2022-08-21T05:03:40;100521.28;;;14.95;73.16
27052;BME280;14601;49.358;8.256;2022-08-21T05:06:44;100519.06;;;15.08;72.58
27052;BME280;14601;49.358;8.256;2022-08-21T05:09:50;100520.84;;;15.18;72.06
27052;BME280;14601;49.358;8.256;2022-08-21T05:12:52;100513.16;;;15.23;71.96
27052;BME280;14601;49.358;8.256;2022-08-21T05:15:54;100528.00;;;15.27;71.99
27052;BME280;14601;49.358;8.256;2022-08-21T05:18:56;100525.91;;;15.21;72.61
27052;BME280;14601;49.358;8.256;2022-08-21T05:21:59;100537.44;;;15.31;72.39
27052;BME280;14601;49.358;8.256;2022-08-21T05:25:03;100536.31;;;15.33;72.68
27052;BME280;14601;49.358;8.256;2022-08-21T05:28:05;100533.53;;;15.43;72.13
27052;BME280;14601;49.358;8.256;2022-08-21T05:31:08;100538.69;;;15.54;71.74
27052;BME280;14601;49.358;8.256;2022-08-21T05:34:09;100538.69;;;15.54;71.78
27052;BME280;14601;49.358;8.256;2022-08-21T05:37:11;100540.25;;;15.57;71.75
27052;BME280;14601;49.358;8.256;2022-08-21T05:40:15;100543.94;;;15.56;71.97
27052;BME280;14601;49.358;8.256;2022-08-21T05:43:17;100544.91;;;15.65;71.50
27052;BME280;14601;49.358;8.256;2022-08-21T05:46:18;100543.44;;;15.70;71.15
27052;BME280;14601;49.358;8.256;2022-08-21T05:49:20;100536.81;;;15.82;70.70
27052;BME280;14601;49.358;8.256;2022-08-21T05:52:22;100533.56;;;15.79;70.54
27052;BME280;14601;49.358;8.256;2022-08-21T05:55:26;100532.47;;;15.90;70.54
27052;BME280;14601;49.358;8.256;2022-08-21T05:58:28;100528.16;;;15.97;70.25
27052;BME280;14601;49.358;8.256;2022-08-21T06:01:30;100532.44;;;16.07;69.75
27052;BME280;14601;49.358;8.256;2022-08-21T06:04:35;100538.44;;;16.19;69.56
27052;BME280;14601;49.358;8.256;2022-08-21T06:07:37;100536.22;;;16.41;68.43
27052;BME280;14601;49.358;8.256;2022-08-21T06:10:41;100543.75;;;16.63;67.23
27052;BME280;14601;49.358;8.256;2022-08-21T06:13:43;100540.22;;;16.63;67.41
27052;BME280;14601;49.358;8.256;2022-08-21T06:16:44;100534.59;;;16.82;66.49
27052;BME280;14601;49.358;8.256;2022-08-21T06:19:51;100541.06;;;16.97;66.24
27052;BME280;14601;49.358;8.256;2022-08-21T06:22:53;100555.47;;;17.14;65.63
27052;BME280;14601;49.358;8.256;2022-08-21T06:25:56;100548.94;;;17.33;64.59
27052;BME280;14601;49.358;8.256;2022-08-21T06:28:58;100554.69;;;17.38;64.30
27052;BME280;14601;49.358;8.256;2022-08-21T06:32:01;100539.34;;;17.39;64.14
27052;BME280;14601;49.358;8.256;2022-08-21T06:35:04;100551.69;;;17.66;62.77
27052;BME280;14601;49.358;8.256;2022-08-21T06:38:07;100556.78;;;17.77;62.76
27052;BME280;14601;49.358;8.256;2022-08-21T06:41:10;100553.25;;;18.01;62.13
27052;BME280;14601;49.358;8.256;2022-08-21T06:44:15;100551.88;;;18.21;60.74
27052;BME280;14601;49.358;8.256;2022-08-21T06:47:17;100554.75;;;18.36;60.06
27052;BME280;14601;49.358;8.256;2022-08-21T06:50:19;100539.88;;;18.40;59.66
27052;BME280;14601;49.358;8.256;2022-08-21T06:53:21;100548.25;;;18.70;58.71
27052;BME280;14601;49.358;8.256;2022-08-21T06:56:25;100549.72;;;18.89;58.21
27052;BME280;14601;49.358;8.256;2022-08-21T06:59:27;100550.66;;;19.12;57.69
27052;BME280;14601;49.358;8.256;2022-08-21T07:02:29;100542.84;;;19.40;57.26
27052;BME280;14601;49.358;8.256;2022-08-21T07:05:30;100537.47;;;19.63;56.38
27052;BME280;14601;49.358;8.256;2022-08-21T07:08:33;100534.47;;;19.27;56.87
27052;BME280;14601;49.358;8.256;2022-08-21T07:11:37;100537.66;;;19.62;56.25
27052;BME280;14601;49.358;8.256;2022-08-21T07:14:39;100533.94;;;19.86;55.42
27052;BME280;14601;49.358;8.256;2022-08-21T07:17:41;100527.72;;;20.15;54.69
27052;BME280;14601;49.358;8.256;2022-08-21T07:20:43;100523.84;;;20.62;53.56
27052;BME280;14601;49.358;8.256;2022-08-21T07:23:47;100530.41;;;20.82;52.65
27052;BME280;14601;49.358;8.256;2022-08-21T07:26:50;100525.66;;;22.90;47.29
27052;BME280;14601;49.358;8.256;2022-08-21T07:29:52;100512.50;;;27.85;35.83
27052;BME280;14601;49.358;8.256;2022-08-21T07:32:55;100510.31;;;31.07;30.46
27052;BME280;14601;49.358;8.256;2022-08-21T07:35:57;100503.75;;;34.69;25.29
27052;BME280;14601;49.358;8.256;2022-08-21T07:39:00;100493.38;;;36.18;22.71
27052;BME280;14601;49.358;8.256;2022-08-21T07:42:04;100492.03;;;37.11;21.56
27052;BME280;14601;49.358;8.256;2022-08-21T07:45:07;100498.78;;;37.81;20.84
27052;BME280;14601;49.358;8.256;2022-08-21T07:48:10;100495.16;;;38.87;19.10
27052;BME280;14601;49.358;8.256;2022-08-21T07:51:14;100493.34;;;39.19;18.55
27052;BME280;14601;49.358;8.256;2022-08-21T07:54:17;100494.16;;;38.23;19.29
27052;BME280;14601;49.358;8.256;2022-08-21T07:57:21;100494.41;;;35.59;22.01
27052;BME280;14601;49.358;8.256;2022-08-21T08:00:25;100496.88;;;35.60;22.08
27052;BME280;14601;49.358;8.256;2022-08-21T08:03:28;100487.41;;;36.01;21.07
27052;BME280;14601;49.358;8.256;2022-08-21T08:06:30;100492.97;;;38.70;18.99
27052;BME280;14601;49.358;8.256;2022-08-21T08:09:32;100491.56;;;40.35;17.40
27052;BME280;14601;49.358;8.256;2022-08-21T08:12:38;100493.63;;;35.48;21.34
27052;BME280;14601;49.358;8.256;2022-08-21T08:15:40;100493.50;;;33.32;24.13
27052;BME280;14601;49.358;8.256;2022-08-21T08:18:42;100489.53;;;37.29;20.56
27052;BME280;14601;49.358;8.256;2022-08-21T08:21:45;100485.06;;;36.13;20.63
27052;BME280;14601;49.358;8.256;2022-08-21T08:24:47;100486.06;;;33.78;23.70
27052;BME280;14601;49.358;8.256;2022-08-21T08:27:51;100470.31;;;38.72;18.73
27052;BME280;14601;49.358;8.256;2022-08-21T08:30:53;100465.84;;;40.56;16.75
27052;BME280;14601;49.358;8.256;2022-08-21T08:33:54;100467.31;;;39.91;17.10
27052;BME280;14601;49.358;8.256;2022-08-21T08:36:56;100463.31;;;41.03;16.13
27052;BME280;14601;49.358;8.256;2022-08-21T08:39:59;100456.84;;;37.86;18.62
27052;BME280;14601;49.358;8.256;2022-08-21T08:43:03;100451.25;;;40.36;16.80
27052;BME280;14601;49.358;8.256;2022-08-21T08:46:12;100455.91;;;36.10;20.68
27052;BME280;14601;49.358;8.256;2022-08-21T08:49:19;100446.13;;;38.40;18.15
27052;BME280;14601;49.358;8.256;2022-08-21T08:52:26;100445.69;;;37.86;18.98
27052;BME280;14601;49.358;8.256;2022-08-21T08:55:34;100433.50;;;39.20;17.82
27052;BME280;14601;49.358;8.256;2022-08-21T08:58:41;100431.53;;;38.84;17.80
27052;BME280;14601;49.358;8.256;2022-08-21T09:01:45;100432.16;;;38.40;18.64
27052;BME280;14601;49.358;8.256;2022-08-21T09:04:48;100428.53;;;38.94;18.22
27052;BME280;14601;49.358;8.256;2022-08-21T09:08:02;100424.41;;;39.73;17.21
27052;BME280;14601;49.358;8.256;2022-08-21T09:11:11;100428.81;;;39.96;16.78
27052;BME280;14601;49.358;8.256;2022-08-21T09:14:20;100417.94;;;40.83;16.00
27052;BME280;14601;49.358;8.256;2022-08-21T09:17:39;100409.91;;;40.02;16.49
27052;BME280;14601;49.358;8.256;2022-08-21T09:20:55;100415.69;;;40.05;16.43
27052;BME280;14601;49.358;8.256;2022-08-21T09:24:16;100419.41;;;39.02;17.72
27052;BME280;14601;49.358;8.256;2022-08-21T09:27:20;100413.94;;;38.83;17.33
27052;BME280;14601;49.358;8.256;2022-08-21T09:30:27;100412.56;;;36.28;20.11
27052;BME280;14601;49.358;8.256;2022-08-21T09:33:31;100404.28;;;34.86;20.99
27052;BME280;14601;49.358;8.256;2022-08-21T09:36:39;100407.97;;;36.19;20.96
27052;BME280;14601;49.358;8.256;2022-08-21T09:39:41;100402.22;;;36.34;20.41
27052;BME280;14601;49.358;8.256;2022-08-21T09:42:54;100406.41;;;36.07;20.76
27052;BME280;14601;49.358;8.256;2022-08-21T09:46:09;100415.88;;;34.34;22.70
27052;BME280;14601;49.358;8.256;2022-08-21T09:49:11;100416.94;;;35.08;20.96
27052;BME280;14601;49.358;8.256;2022-08-21T09:52:16;100411.16;;;32.91;23.45
27052;BME280;14601;49.358;8.256;2022-08-21T09:55:26;100406.84;;;32.43;23.67
27052;BME280;14601;49.358;8.256;2022-08-21T09:58:50;100414.75;;;31.22;25.31
27052;BME280;14601;49.358;8.256;2022-08-21T10:01:53;100406.81;;;33.11;23.63
27052;BME280;14601;49.358;8.256;2022-08-21T10:04:58;100395.69;;;32.33;24.33
27052;BME280;14601;49.358;8.256;2022-08-21T10:08:01;100393.63;;;32.65;23.86
27052;BME280;14601;49.358;8.256;2022-08-21T10:11:06;100393.94;;;32.16;24.76
27052;BME280;14601;49.358;8.256;2022-08-21T10:14:15;100387.72;;;33.25;23.97
27052;BME280;14601;49.358;8.256;2022-08-21T10:17:32;100401.53;;;30.97;26.07
27052;BME280;14601;49.358;8.256;2022-08-21T10:20:40;100396.97;;;28.62;29.80
27052;BME280;14601;49.358;8.256;2022-08-21T10:23:54;100393.41;;;29.19;29.38
27052;BME280;14601;49.358;8.256;2022-08-21T10:27:07;100376.34;;;29.34;28.77
27052;BME280;14601;49.358;8.256;2022-08-21T10:30:15;100381.38;;;28.39;30.55
27052;BME280;14601;49.358;8.256;2022-08-21T10:33:29;100380.59;;;27.68;32.02
27052;BME280;14601;49.358;8.256;2022-08-21T10:36:39;100371.78;;;27.90;31.74
27052;BME280;14601;49.358;8.256;2022-08-21T10:39:51;100371.41;;;27.98;31.11
27052;BME280;14601;49.358;8.256;2022-08-21T10:43:07;100368.53;;;27.69;31.68
27052;BME280;14601;49.358;8.256;2022-08-21T10:46:33;100365.19;;;27.79;31.72
27052;BME280;14601;49.358;8.256;2022-08-21T10:49:51;100363.53;;;27.90;31.88
27052;BME280;14601;49.358;8.256;2022-08-21T10:56:29;100364.50;;;27.18;32.44
27052;BME280;14601;49.358;8.256;2022-08-21T10:59:34;100366.41;;;27.18;32.54
27052;BME280;14601;49.358;8.256;2022-08-21T11:02:42;100355.03;;;27.56;31.57
27052;BME280;14601;49.358;8.256;2022-08-21T11:05:52;100356.03;;;27.73;31.70
27052;BME280;14601;49.358;8.256;2022-08-21T11:08:57;100348.59;;;28.09;31.33
27052;BME280;14601;49.358;8.256;2022-08-21T11:12:07;100346.31;;;28.06;31.57
27052;BME280;14601;49.358;8.256;2022-08-21T11:15:23;100350.38;;;26.43;33.74
27052;BME280;14601;49.358;8.256;2022-08-21T11:18:29;100348.41;;;26.31;34.08
27052;BME280;14601;49.358;8.256;2022-08-21T11:21:37;100342.78;;;26.08;34.18
27052;BME280;14601;49.358;8.256;2022-08-21T11:24:46;100342.94;;;26.13;34.35
27052;BME280;14601;49.358;8.256;2022-08-21T11:27:52;100332.66;;;26.45;33.89
27052;BME280;14601;49.358;8.256;2022-08-21T11:31:04;100335.22;;;26.88;33.33
27052;BME280;14601;49.358;8.256;2022-08-21T11:34:23;100333.78;;;26.86;33.21
27052;BME280;14601;49.358;8.256;2022-08-21T11:37:43;100332.97;;;27.39;32.39
27052;BME280;14601;49.358;8.256;2022-08-21T11:40:58;100326.28;;;27.23;32.36
27052;BME280;14601;49.358;8.256;2022-08-21T11:44:14;100320.81;;;27.47;32.01
27052;BME280;14601;49.358;8.256;2022-08-21T11:47:30;100317.88;;;27.18;32.98
27052;BME280;14601;49.358;8.256;2022-08-21T11:50:35;100312.31;;;27.25;32.28
27052;BME280;14601;49.358;8.256;2022-08-21T11:53:54;100316.63;;;26.91;32.85
27052;BME280;14601;49.358;8.256;2022-08-21T11:57:03;100309.16;;;27.09;32.95
27052;BME280;14601;49.358;8.256;2022-08-21T12:00:13;100308.38;;;27.32;32.23
27052;BME280;14601;49.358;8.256;2022-08-21T12:03:24;100297.78;;;27.48;32.26
27052;BME280;14601;49.358;8.256;2022-08-21T12:06:29;100301.22;;;27.67;32.01
27052;BME280;14601;49.358;8.256;2022-08-21T12:09:35;100305.88;;;27.66;31.95
27052;BME280;14601;49.358;8.256;2022-08-21T12:12:40;100293.13;;;27.83;31.45
27052;BME280;14601;49.358;8.256;2022-08-21T12:15:42;100302.66;;;27.57;31.72
27052;BME280;14601;49.358;8.256;2022-08-21T12:18:44;100298.25;;;27.56;31.67
27052;BME280;14601;49.358;8.256;2022-08-21T12:21:49;100290.75;;;27.75;31.08
27052;BME280;14601;49.358;8.256;2022-08-21T12:24:53;100290.22;;;27.90;30.98
27052;BME280;14601;49.358;8.256;2022-08-21T12:28:08;100283.22;;;27.59;31.35
27052;BME280;14601;49.358;8.256;2022-08-21T12:31:20;100276.34;;;28.49;31.70
27052;BME280;14601;49.358;8.256;2022-08-21T12:34:27;100279.69;;;28.51;29.68
27052;BME280;14601;49.358;8.256;2022-08-21T12:37:38;100274.16;;;28.96;29.41
27052;BME280;14601;49.358;8.256;2022-08-21T12:40:44;100268.25;;;28.42;29.59
27052;BME280;14601;49.358;8.256;2022-08-21T12:43:51;100271.22;;;28.69;29.51
27052;BME280;14601;49.358;8.256;2022-08-21T12:46:57;100269.53;;;29.14;29.13
27052;BME280;14601;49.358;8.256;2022-08-21T12:50:04;100261.09;;;29.20;28.80
27052;BME280;14601;49.358;8.256;2022-08-21T12:53:11;100268.66;;;29.64;28.41
27052;BME280;14601;49.358;8.256;2022-08-21T12:56:17;100257.06;;;30.22;27.62
27052;BME280;14601;49.358;8.256;2022-08-21T12:59:21;100261.28;;;29.14;28.93
27052;BME280;14601;49.358;8.256;2022-08-21T13:02:27;100266.41;;;29.61;28.37
27052;BME280;14601;49.358;8.256;2022-08-21T13:05:33;100259.81;;;30.05;27.99
27052;BME280;14601;49.358;8.256;2022-08-21T13:08:36;100262.25;;;30.02;27.89
27052;BME280;14601;49.358;8.256;2022-08-21T13:11:40;100259.25;;;30.03;27.78
27052;BME280;14601;49.358;8.256;2022-08-21T13:14:44;100254.44;;;29.94;27.73
27052;BME280;14601;49.358;8.256;2022-08-21T13:17:47;100257.31;;;29.43;28.72
27052;BME280;14601;49.358;8.256;2022-08-21T13:20:50;100256.06;;;30.12;27.87
27052;BME280;14601;49.358;8.256;2022-08-21T13:23:53;100254.06;;;29.85;28.11
27052;BME280;14601;49.358;8.256;2022-08-21T13:26:56;100246.72;;;29.52;28.78
27052;BME280;14601;49.358;8.256;2022-08-21T13:30:08;100252.94;;;29.08;29.43
27052;BME280;14601;49.358;8.256;2022-08-21T13:33:13;100255.28;;;28.54;29.89
27052;BME280;14601;49.358;8.256;2022-08-21T13:36:20;100248.56;;;28.62;30.30
27052;BME280;14601;49.358;8.256;2022-08-21T13:39:26;100239.38;;;29.02;29.27
27052;BME280;14601;49.358;8.256;2022-08-21T13:42:29;100235.56;;;29.42;28.96
27052;BME280;14601;49.358;8.256;2022-08-21T13:45:32;100240.41;;;29.35;28.75
27052;BME280;14601;49.358;8.256;2022-08-21T13:48:35;100240.41;;;29.35;29.12
27052;BME280;14601;49.358;8.256;2022-08-21T13:51:37;100228.22;;;29.47;28.52
27052;BME280;14601;49.358;8.256;2022-08-21T13:54:42;100229.66;;;29.16;29.21
27052;BME280;14601;49.358;8.256;2022-08-21T13:57:46;100220.25;;;28.78;29.65
27052;BME280;14601;49.358;8.256;2022-08-21T14:00:49;100225.88;;;28.55;30.60
27052;BME280;14601;49.358;8.256;2022-08-21T14:03:54;100223.63;;;28.52;30.34
27052;BME280;14601;49.358;8.256;2022-08-21T14:06:59;100218.13;;;28.23;30.46
27052;BME280;14601;49.358;8.256;2022-08-21T14:10:02;100220.59;;;28.08;30.77
27052;BME280;14601;49.358;8.256;2022-08-21T14:13:06;100217.28;;;28.23;31.04
27052;BME280;14601;49.358;8.256;2022-08-21T14:16:17;100213.66;;;28.34;30.32
27052;BME280;14601;49.358;8.256;2022-08-21T14:19:22;100207.41;;;28.22;30.31
27052;BME280;14601;49.358;8.256;2022-08-21T14:22:32;100205.50;;;28.68;30.18
27052;BME280;14601;49.358;8.256;2022-08-21T14:25:39;100202.59;;;28.57;30.08
27052;BME280;14601;49.358;8.256;2022-08-21T14:28:44;100198.25;;;28.45;30.16
27052;BME280;14601;49.358;8.256;2022-08-21T14:31:50;100196.50;;;28.27;30.39
27052;BME280;14601;49.358;8.256;2022-08-21T14:34:52;100196.25;;;28.40;30.42
27052;BME280;14601;49.358;8.256;2022-08-21T14:37:55;100197.31;;;28.27;30.37
27052;BME280;14601;49.358;8.256;2022-08-21T14:40:58;100192.63;;;28.11;30.47
27052;BME280;14601;49.358;8.256;2022-08-21T14:44:03;100186.72;;;28.48;29.71
27052;BME280;14601;49.358;8.256;2022-08-21T14:47:06;100186.81;;;28.36;30.56
27052;BME280;14601;49.358;8.256;2022-08-21T14:50:09;100185.06;;;28.47;29.97
27052;BME280;14601;49.358;8.256;2022-08-21T14:53:11;100182.41;;;28.52;29.62
27052;BME280;14601;49.358;8.256;2022-08-21T14:56:14;100189.44;;;28.76;29.22
27052;BME280;14601;49.358;8.256;2022-08-21T14:59:18;100186.28;;;29.01;29.15
27052;BME280;14601;49.358;8.256;2022-08-21T15:02:21;100180.09;;;29.11;29.08
27052;BME280;14601;49.358;8.256;2022-08-21T15:05:23;100167.94;;;29.07;28.65
27052;BME280;14601;49.358;8.256;2022-08-21T15:08:25;100166.69;;;29.37;28.55
27052;BME280;14601;49.358;8.256;2022-08-21T15:11:27;100173.88;;;29.38;28.49
27052;BME280;14601;49.358;8.256;2022-08-21T15:14:32;100165.50;;;29.11;28.94
27052;BME280;14601;49.358;8.256;2022-08-21T15:17:36;100173.59;;;29.17;28.44
27052;BME280;14601;49.358;8.256;2022-08-21T15:20:38;100170.94;;;28.89;29.02
27052;BME280;14601;49.358;8.256;2022-08-21T15:23:40;100168.25;;;28.60;28.91
27052;BME280;14601;49.358;8.256;2022-08-21T15:26:42;100173.09;;;28.36;29.55
27052;BME280;14601;49.358;8.256;2022-08-21T15:29:46;100179.19;;;28.26;29.76
27052;BME280;14601;49.358;8.256;2022-08-21T15:32:48;100167.19;;;28.44;29.72
27052;BME280;14601;49.358;8.256;2022-08-21T15:35:50;100166.03;;;28.57;29.48
27052;BME280;14601;49.358;8.256;2022-08-21T15:38:52;100166.19;;;28.50;29.60
27052;BME280;14601;49.358;8.256;2022-08-21T15:41:54;100170.09;;;28.38;29.73
27052;BME280;14601;49.358;8.256;2022-08-21T15:44:57;100168.78;;;28.28;30.15
27052;BME280;14601;49.358;8.256;2022-08-21T15:47:59;100163.19;;;28.23;29.75
27052;BME280;14601;49.358;8.256;2022-08-21T15:51:01;100148.84;;;28.04;30.36
27052;BME280;14601;49.358;8.256;2022-08-21T15:54:03;100156.06;;;27.94;30.18
27052;BME280;14601;49.358;8.256;2022-08-21T15:57:05;100149.56;;;27.71;30.56
27052;BME280;14601;49.358;8.256;2022-08-21T16:00:12;100147.25;;;27.92;30.53
27052;BME280;14601;49.358;8.256;2022-08-21T16:03:16;100153.13;;;27.83;30.44
27052;BME280;14601;49.358;8.256;2022-08-21T16:06:21;100151.03;;;27.91;30.36
27052;BME280;14601;49.358;8.256;2022-08-21T16:09:23;100154.78;;;27.84;30.73